Time;durP1;ratioP1;P1;durP2;ratioP2;P2;SDS_P1;SDS_P2;PMS_P1;PMS_P2;Temp;Humidity;BMP_temperature;BMP_pressure;BME280_temperature;BME280_humidity;BME280_pressure;Samples;Min_cycle;Max_cycle;Signal;HPM_P1;HPM_P2
2023/09/17 00:01:35;;;;;;;27.10;21.05;;;;;;;;;;5032931;28;20440;-64
2023/09/17 00:04:03;;;;;;;24.42;20.35;;;;;;;;;;5032798;28;20096;-64
2023/09/17 00:06:31;;;;;;;27.23;21.45;;;;;;;;;;5031511;28;20052;-64
2023/09/17 00:08:59;;;;;;;26.23;20.92;;;;;;;;;;5032858;28;20038;-64
2023/09/17 00:11:26;;;;;;;23.17;19.83;;;;;;;;;;5032882;28;20041;-64
2023/09/17 00:13:54;;;;;;;22.58;19.25;;;;;;;;;;5032655;28;20041;-64
2023/09/17 00:16:21;;;;;;;23.23;19.88;;;;;;;;;;5032756;28;20052;-64
2023/09/17 00:18:49;;;;;;;26.65;19.58;;;;;;;;;;5032424;28;20401;-63
2023/09/17 00:21:16;;;;;;;27.70;19.75;;;;;;;;;;5032567;28;20037;-64
2023/09/17 00:23:44;;;;;;;27.80;20.63;;;;;;;;;;5032634;28;20489;-63
2023/09/17 00:26:11;;;;;;;25.10;19.60;;;;;;;;;;5032574;28;20127;-64
2023/09/17 00:28:43;;;;;;;23.83;20.73;;;;;;;;;;5031445;28;20128;-64
2023/09/17 00:31:10;;;;;;;24.55;19.95;;;;;;;;;;5031171;28;20100;-64
2023/09/17 00:33:38;;;;;;;24.95;18.38;;;;;;;;;;5032589;28;20044;-64
2023/09/17 00:36:05;;;;;;;25.05;18.33;;;;;;;;;;5031119;28;20135;-63
2023/09/17 00:38:33;;;;;;;23.58;18.02;;;;;;;;;;5031000;28;20054;-64
2023/09/17 00:41:00;;;;;;;22.88;17.48;;;;;;;;;;5030987;28;20046;-64
2023/09/17 00:43:30;;;;;;;21.30;16.88;;;;;;;;;;5031220;28;20049;-64
2023/09/17 00:45:57;;;;;;;27.55;17.73;;;;;;;;;;5031025;28;20107;-64
2023/09/17 00:48:28;;;;;;;19.23;16.52;;;;;;;;;;5032533;28;20034;-64
2023/09/17 00:50:56;;;;;;;19.25;16.25;;;;;;;;;;5031051;28;20498;-64
2023/09/17 00:53:25;;;;;;;18.13;15.15;;;;;;;;;;5032342;28;20033;-66
2023/09/17 00:55:52;;;;;;;17.20;15.18;;;;;;;;;;5030991;28;20045;-64
2023/09/17 00:58:21;;;;;;;19.55;15.70;;;;;;;;;;5032345;28;20042;-64
2023/09/17 01:00:48;;;;;;;19.38;14.50;;;;;;;;;;5032171;28;20045;-63
2023/09/17 01:03:16;;;;;;;16.40;13.65;;;;;;;;;;5032272;28;20049;-63
2023/09/17 01:05:44;;;;;;;18.48;14.05;;;;;;;;;;5032065;28;20069;-64
2023/09/17 01:08:12;;;;;;;16.60;13.18;;;;;;;;;;5030908;28;20472;-63
2023/09/17 01:10:39;;;;;;;16.17;12.73;;;;;;;;;;5032335;28;20426;-65
2023/09/17 01:13:08;;;;;;;13.93;11.15;;;;;;;;;;5032155;28;20073;-64
2023/09/17 01:15:37;;;;;;;14.43;11.55;;;;;;;;;;5030723;28;20379;-64
2023/09/17 01:18:07;;;;;;;15.70;10.98;;;;;;;;;;5030988;28;20042;-64
2023/09/17 01:20:39;;;;;;;15.05;10.82;;;;;;;;;;5034631;28;20507;-65
2023/09/17 01:23:16;;;;;;;12.45;9.77;;;;;;;;;;5034751;28;20038;-65
2023/09/17 01:25:58;;;;;;;15.15;10.05;;;;;;;;;;5018416;28;20057;-65
2023/09/17 01:28:25;;;;;;;12.48;9.73;;;;;;;;;;5034601;28;20065;-64
2023/09/17 01:30:53;;;;;;;12.00;9.70;;;;;;;;;;5034553;28;20139;-66
2023/09/17 01:33:20;;;;;;;13.52;10.13;;;;;;;;;;5034455;28;20045;-64
2023/09/17 01:35:53;;;;;;;12.60;9.70;;;;;;;;;;5034546;28;20068;-66
2023/09/17 01:38:25;;;;;;;14.77;10.25;;;;;;;;;;5035523;28;20053;-63
2023/09/17 01:40:55;;;;;;;12.07;9.50;;;;;;;;;;5034220;28;20049;-64
2023/09/17 01:43:23;;;;;;;11.48;9.85;;;;;;;;;;5034441;28;20049;-66
2023/09/17 01:45:51;;;;;;;12.77;9.52;;;;;;;;;;5034122;28;20131;-66
2023/09/17 01:48:19;;;;;;;15.48;9.85;;;;;;;;;;5035426;28;20041;-64
2023/09/17 01:50:47;;;;;;;12.85;9.98;;;;;;;;;;5034062;28;20068;-65
2023/09/17 01:53:16;;;;;;;15.90;10.70;;;;;;;;;;5034130;28;20117;-65
2023/09/17 01:55:43;;;;;;;13.65;10.80;;;;;;;;;;5035423;28;20065;-65
2023/09/17 01:58:11;;;;;;;12.05;10.32;;;;;;;;;;5034027;28;20041;-65
2023/09/17 02:00:39;;;;;;;13.80;10.20;;;;;;;;;;5033906;28;20083;-65
2023/09/17 02:03:08;;;;;;;12.02;10.10;;;;;;;;;;5034014;28;20050;-65
2023/09/17 02:05:36;;;;;;;12.68;9.30;;;;;;;;;;5033766;28;20071;-65
2023/09/17 02:08:03;;;;;;;12.88;9.82;;;;;;;;;;5033886;28;20042;-66
2023/09/17 02:10:31;;;;;;;14.07;9.75;;;;;;;;;;5033841;28;20061;-65
2023/09/17 02:12:58;;;;;;;13.43;10.07;;;;;;;;;;5033826;28;20119;-65
2023/09/17 02:15:26;;;;;;;13.02;9.80;;;;;;;;;;5033666;28;20526;-65
2023/09/17 02:17:53;;;;;;;12.27;10.15;;;;;;;;;;5033697;28;20076;-65
2023/09/17 02:20:21;;;;;;;12.27;10.35;;;;;;;;;;5034829;28;20038;-65
2023/09/17 02:22:48;;;;;;;13.55;9.52;;;;;;;;;;5033522;28;20074;-65
2023/09/17 02:25:16;;;;;;;12.02;9.68;;;;;;;;;;5033611;28;20033;-65
2023/09/17 02:27:45;;;;;;;14.98;10.05;;;;;;;;;;5034895;28;20061;-65
2023/09/17 02:30:13;;;;;;;13.20;10.20;;;;;;;;;;5033217;28;20087;-65
2023/09/17 02:32:43;;;;;;;14.23;9.68;;;;;;;;;;5034479;28;20029;-65
2023/09/17 02:35:11;;;;;;;13.10;11.05;;;;;;;;;;5033415;28;20533;-65
2023/09/17 02:37:39;;;;;;;12.70;10.10;;;;;;;;;;5033165;28;20050;-65
2023/09/17 02:40:09;;;;;;;13.48;10.23;;;;;;;;;;5034530;28;20038;-66
2023/09/17 02:42:37;;;;;;;15.10;10.30;;;;;;;;;;5033234;28;20411;-65
2023/09/17 02:45:05;;;;;;;12.63;10.98;;;;;;;;;;5032765;28;20041;-65
2023/09/17 02:47:33;;;;;;;15.23;11.13;;;;;;;;;;5034330;28;20049;-65
2023/09/17 02:50:03;;;;;;;14.45;11.65;;;;;;;;;;5033032;28;20392;-65
2023/09/17 02:52:31;;;;;;;16.95;11.10;;;;;;;;;;5032938;28;20415;-65
2023/09/17 02:54:58;;;;;;;13.55;11.02;;;;;;;;;;5032910;28;20046;-65
2023/09/17 02:57:26;;;;;;;14.48;10.80;;;;;;;;;;5032974;28;20068;-65
2023/09/17 02:59:53;;;;;;;13.27;11.55;;;;;;;;;;5032802;28;20396;-65
2023/09/17 03:02:21;;;;;;;15.82;11.15;;;;;;;;;;5032562;28;20049;-65
2023/09/17 03:04:52;;;;;;;14.32;10.93;;;;;;;;;;5034204;28;20416;-65
2023/09/17 03:07:20;;;;;;;16.02;11.60;;;;;;;;;;5032723;28;20143;-65
2023/09/17 03:09:48;;;;;;;16.40;11.68;;;;;;;;;;5032603;28;20521;-65
2023/09/17 03:12:15;;;;;;;17.45;12.35;;;;;;;;;;5032623;28;20132;-65
2023/09/17 03:14:43;;;;;;;15.52;12.35;;;;;;;;;;5032447;28;20064;-65
2023/09/17 03:17:10;;;;;;;15.35;11.93;;;;;;;;;;5033767;28;20117;-65
2023/09/17 03:19:38;;;;;;;16.25;12.20;;;;;;;;;;5032404;28;20068;-65
2023/09/17 03:22:06;;;;;;;16.73;12.38;;;;;;;;;;5015917;28;20060;-65
2023/09/17 03:24:34;;;;;;;18.13;13.40;;;;;;;;;;5032294;28;20076;-64
2023/09/17 03:27:02;;;;;;;17.52;14.15;;;;;;;;;;5032441;28;20494;-65
2023/09/17 03:29:30;;;;;;;17.63;14.15;;;;;;;;;;5032134;28;20037;-65
2023/09/17 03:31:59;;;;;;;17.23;14.02;;;;;;;;;;5032061;28;20042;-65
2023/09/17 03:34:26;;;;;;;17.80;13.02;;;;;;;;;;5031892;28;20056;-65
2023/09/17 03:36:54;;;;;;;16.25;13.15;;;;;;;;;;5033265;28;20053;-64
2023/09/17 03:39:22;;;;;;;21.10;14.20;;;;;;;;;;5032038;28;20125;-65
2023/09/17 03:41:49;;;;;;;19.10;14.80;;;;;;;;;;5032324;28;20120;-65
2023/09/17 03:44:17;;;;;;;18.00;14.23;;;;;;;;;;5031750;28;20133;-65
2023/09/17 03:46:45;;;;;;;17.90;14.07;;;;;;;;;;5031955;28;20076;-65
2023/09/17 03:49:13;;;;;;;21.17;14.15;;;;;;;;;;5031920;28;20116;-65
2023/09/17 03:51:41;;;;;;;18.23;14.05;;;;;;;;;;5031922;28;20053;-65
2023/09/17 03:54:08;;;;;;;19.55;13.48;;;;;;;;;;5033178;28;20037;-65
2023/09/17 03:56:36;;;;;;;18.52;14.23;;;;;;;;;;5032080;28;20050;-65
2023/09/17 03:59:05;;;;;;;22.85;14.73;;;;;;;;;;5031690;28;20045;-65
2023/09/17 04:01:32;;;;;;;20.08;13.63;;;;;;;;;;5032976;28;20398;-65
2023/09/17 04:04:00;;;;;;;17.27;13.85;;;;;;;;;;5031765;28;20034;-65
2023/09/17 04:06:30;;;;;;;18.00;14.48;;;;;;;;;;5031677;28;20103;-65
2023/09/17 04:08:57;;;;;;;20.23;13.48;;;;;;;;;;5031743;28;20049;-65
2023/09/17 04:11:28;;;;;;;17.73;13.93;;;;;;;;;;5031967;28;20041;-65
2023/09/17 04:13:55;;;;;;;18.38;14.45;;;;;;;;;;5038362;28;20045;-65
2023/09/17 04:16:23;;;;;;;20.58;14.18;;;;;;;;;;5036068;28;20069;-65
2023/09/17 04:18:51;;;;;;;17.10;13.75;;;;;;;;;;5031360;28;20494;-65
2023/09/17 04:21:19;;;;;;;19.85;14.13;;;;;;;;;;5031480;28;20046;-65
2023/09/17 04:23:47;;;;;;;19.95;13.95;;;;;;;;;;5031082;28;20107;-65
2023/09/17 04:26:16;;;;;;;19.00;13.23;;;;;;;;;;5031367;28;20074;-65
2023/09/17 04:28:46;;;;;;;19.17;13.65;;;;;;;;;;5031365;28;20115;-65
2023/09/17 04:31:13;;;;;;;19.83;14.38;;;;;;;;;;5031306;28;20069;-65
2023/09/17 04:33:41;;;;;;;16.60;13.60;;;;;;;;;;5031206;28;20052;-65
2023/09/17 04:36:09;;;;;;;17.95;13.88;;;;;;;;;;5031140;28;20572;-65
2023/09/17 04:38:36;;;;;;;18.52;12.82;;;;;;;;;;5031114;28;20057;-64
2023/09/17 04:41:04;;;;;;;18.35;14.18;;;;;;;;;;5031168;28;20063;-65
2023/09/17 04:43:31;;;;;;;18.38;13.43;;;;;;;;;;5031275;28;20084;-65
2023/09/17 04:46:00;;;;;;;18.00;13.60;;;;;;;;;;5031177;28;20061;-65
2023/09/17 04:48:31;;;;;;;15.57;13.43;;;;;;;;;;5031027;28;20046;-65
2023/09/17 04:50:59;;;;;;;18.23;13.32;;;;;;;;;;5031128;28;20491;-65
2023/09/17 04:53:27;;;;;;;17.60;13.07;;;;;;;;;;5033655;28;20073;-65
2023/09/17 04:55:54;;;;;;;19.08;13.45;;;;;;;;;;5035167;28;20049;-65
2023/09/17 04:58:28;;;;;;;17.02;12.85;;;;;;;;;;5035210;28;20541;-64
2023/09/17 05:00:57;;;;;;;17.50;13.32;;;;;;;;;;5035056;28;20057;-64
2023/09/17 05:03:25;;;;;;;21.77;13.77;;;;;;;;;;5035046;28;20522;-64
2023/09/17 05:05:52;;;;;;;17.88;13.30;;;;;;;;;;5035036;28;20523;-64
2023/09/17 05:08:22;;;;;;;17.88;12.82;;;;;;;;;;5035119;28;20073;-64
2023/09/17 05:10:50;;;;;;;20.83;14.70;;;;;;;;;;5034934;28;20047;-65
2023/09/17 05:13:20;;;;;;;17.55;14.25;;;;;;;;;;5034940;28;20387;-65
2023/09/17 05:15:49;;;;;;;21.27;14.27;;;;;;;;;;5034892;28;20053;-65
2023/09/17 05:18:16;;;;;;;16.88;13.88;;;;;;;;;;5034648;28;20041;-65
2023/09/17 05:20:48;;;;;;;16.65;14.15;;;;;;;;;;5034680;28;20120;-65
2023/09/17 05:23:17;;;;;;;17.95;13.98;;;;;;;;;;5034697;28;20057;-64
2023/09/17 05:25:45;;;;;;;16.52;13.32;;;;;;;;;;5034644;28;20038;-63
2023/09/17 05:28:14;;;;;;;20.55;14.60;;;;;;;;;;5034182;28;20073;-63
2023/09/17 05:30:42;;;;;;;18.35;13.73;;;;;;;;;;5034072;28;20037;-65
2023/09/17 05:33:10;;;;;;;17.05;13.93;;;;;;;;;;5033896;28;20454;-64
2023/09/17 05:35:38;;;;;;;16.35;13.60;;;;;;;;;;5033434;28;20037;-64
2023/09/17 05:38:06;;;;;;;18.02;13.82;;;;;;;;;;5033643;28;20049;-66
2023/09/17 05:40:35;;;;;;;18.95;13.52;;;;;;;;;;5033692;28;20033;-64
2023/09/17 05:43:03;;;;;;;16.48;12.68;;;;;;;;;;5039541;28;20368;-64
2023/09/17 05:45:31;;;;;;;17.75;13.07;;;;;;;;;;5033735;28;20053;-65
2023/09/17 05:48:00;;;;;;;16.52;12.35;;;;;;;;;;5033747;28;20042;-64
2023/09/17 05:50:28;;;;;;;15.95;12.80;;;;;;;;;;5033750;28;20045;-65
2023/09/17 05:52:56;;;;;;;14.35;11.85;;;;;;;;;;5033659;28;20038;-63
2023/09/17 05:55:24;;;;;;;15.85;12.40;;;;;;;;;;5031372;28;20084;-63
2023/09/17 05:57:53;;;;;;;15.48;11.65;;;;;;;;;;5034115;28;20072;-63
2023/09/17 06:00:20;;;;;;;13.90;12.13;;;;;;;;;;5032737;28;20053;-63
2023/09/17 06:02:48;;;;;;;13.27;11.88;;;;;;;;;;5033914;28;20045;-64
2023/09/17 06:05:17;;;;;;;15.65;12.93;;;;;;;;;;5033128;28;20053;-65
2023/09/17 06:07:44;;;;;;;14.85;11.48;;;;;;;;;;5033911;28;20049;-64
2023/09/17 06:10:12;;;;;;;14.60;13.00;;;;;;;;;;5035079;28;20045;-67
2023/09/17 06:12:41;;;;;;;18.15;14.00;;;;;;;;;;5033851;28;20054;-65
2023/09/17 06:15:09;;;;;;;17.05;13.73;;;;;;;;;;5033783;28;20037;-65
2023/09/17 06:17:37;;;;;;;19.02;14.18;;;;;;;;;;5033540;28;20045;-65
2023/09/17 06:20:05;;;;;;;16.17;13.48;;;;;;;;;;5017103;28;20052;-64
2023/09/17 06:22:33;;;;;;;15.32;13.00;;;;;;;;;;5033515;28;20084;-65
2023/09/17 06:25:03;;;;;;;15.23;13.18;;;;;;;;;;5033566;28;20061;-65
2023/09/17 06:27:30;;;;;;;16.48;13.20;;;;;;;;;;5032992;28;20056;-64
2023/09/17 06:29:59;;;;;;;19.20;13.02;;;;;;;;;;5023699;28;20513;-64
2023/09/17 06:32:27;;;;;;;17.40;12.98;;;;;;;;;;5026869;28;20111;-64
2023/09/17 06:34:55;;;;;;;16.70;13.77;;;;;;;;;;5026873;28;20399;-64
2023/09/17 06:37:23;;;;;;;18.50;12.98;;;;;;;;;;5027505;28;20073;-64
2023/09/17 06:39:51;;;;;;;17.13;15.20;;;;;;;;;;5027355;28;20042;-64
2023/09/17 06:42:19;;;;;;;24.40;20.10;;;;;;;;;;5027615;28;20042;-64
2023/09/17 06:44:46;;;;;;;18.30;16.25;;;;;;;;;;5028347;28;20045;-65
2023/09/17 06:47:15;;;;;;;18.85;16.73;;;;;;;;;;5027485;28;20041;-65
2023/09/17 06:49:43;;;;;;;22.30;17.85;;;;;;;;;;5028439;28;20038;-65
2023/09/17 06:52:11;;;;;;;20.27;18.05;;;;;;;;;;5028157;28;20029;-64
2023/09/17 06:54:38;;;;;;;20.38;18.17;;;;;;;;;;5028649;28;20076;-65
2023/09/17 06:57:05;;;;;;;21.88;19.58;;;;;;;;;;5028257;28;20041;-65
2023/09/17 06:59:33;;;;;;;22.80;17.13;;;;;;;;;;5028941;28;20394;-65
2023/09/17 07:02:00;;;;;;;17.65;15.52;;;;;;;;;;5028552;28;20379;-64
2023/09/17 07:04:28;;;;;;;17.83;14.52;;;;;;;;;;5028240;28;20046;-65
2023/09/17 07:07:00;;;;;;;19.00;15.60;;;;;;;;;;5028769;28;20053;-65
2023/09/17 07:09:28;;;;;;;19.42;15.13;;;;;;;;;;5029060;28;20079;-67
2023/09/17 07:11:56;;;;;;;18.55;14.65;;;;;;;;;;5028822;28;20053;-66
2023/09/17 07:14:24;;;;;;;16.45;13.75;;;;;;;;;;5028555;28;20045;-65
2023/09/17 07:16:51;;;;;;;18.10;15.82;;;;;;;;;;5026944;28;20446;-64
2023/09/17 07:19:19;;;;;;;18.35;14.93;;;;;;;;;;5028370;28;20034;-65
2023/09/17 07:21:46;;;;;;;20.85;15.85;;;;;;;;;;5028185;28;20049;-65
2023/09/17 07:24:14;;;;;;;18.10;14.68;;;;;;;;;;5028308;28;20032;-64
2023/09/17 07:26:42;;;;;;;17.95;14.57;;;;;;;;;;5028588;28;20042;-65
2023/09/17 07:29:10;;;;;;;17.45;13.38;;;;;;;;;;5026459;28;20494;-65
2023/09/17 07:31:38;;;;;;;15.30;13.70;;;;;;;;;;5028095;28;20459;-65
2023/09/17 07:34:06;;;;;;;18.23;13.13;;;;;;;;;;5027848;28;20041;-65
2023/09/17 07:36:33;;;;;;;14.15;12.70;;;;;;;;;;5027887;28;20092;-66
2023/09/17 07:39:01;;;;;;;14.85;12.48;;;;;;;;;;5028753;28;20037;-65
2023/09/17 07:41:28;;;;;;;15.23;12.32;;;;;;;;;;5027502;28;20069;-66
2023/09/17 07:43:56;;;;;;;15.15;12.38;;;;;;;;;;5027766;28;20045;-66
2023/09/17 07:46:24;;;;;;;16.05;12.63;;;;;;;;;;5027701;28;20049;-65
2023/09/17 07:48:51;;;;;;;14.63;12.32;;;;;;;;;;5027996;28;20041;-65
2023/09/17 07:51:19;;;;;;;14.50;12.50;;;;;;;;;;5026478;28;20108;-64
2023/09/17 07:53:46;;;;;;;14.75;11.98;;;;;;;;;;5027316;28;20124;-65
2023/09/17 07:56:14;;;;;;;12.82;10.85;;;;;;;;;;5027855;28;20041;-64
2023/09/17 07:58:45;;;;;;;13.40;10.75;;;;;;;;;;5027853;28;20070;-66
2023/09/17 08:01:14;;;;;;;13.70;11.23;;;;;;;;;;5027404;28;20048;-66
2023/09/17 08:03:41;;;;;;;15.32;12.10;;;;;;;;;;5027183;28;20499;-67
2023/09/17 08:06:11;;;;;;;12.73;10.73;;;;;;;;;;5026942;28;20475;-66
2023/09/17 08:08:38;;;;;;;14.43;11.43;;;;;;;;;;5027591;28;20075;-66
2023/09/17 08:11:07;;;;;;;11.93;10.25;;;;;;;;;;5027348;28;20067;-65
2023/09/17 08:13:34;;;;;;;19.42;14.48;;;;;;;;;;5027714;28;20099;-65
2023/09/17 08:16:02;;;;;;;13.95;11.32;;;;;;;;;;5027227;28;20041;-65
2023/09/17 08:18:30;;;;;;;18.10;12.40;;;;;;;;;;5027405;28;20049;-65
2023/09/17 08:20:58;;;;;;;12.32;10.27;;;;;;;;;;5027276;28;20084;-66
2023/09/17 08:23:26;;;;;;;13.00;10.27;;;;;;;;;;5027049;28;20172;-64
2023/09/17 08:25:53;;;;;;;11.30;10.05;;;;;;;;;;5026789;28;20052;-65
2023/09/17 08:28:22;;;;;;;11.43;9.55;;;;;;;;;;5026684;28;20057;-64
2023/09/17 08:30:50;;;;;;;12.50;9.80;;;;;;;;;;5027392;28;20046;-66
2023/09/17 08:33:17;;;;;;;11.95;8.85;;;;;;;;;;5026745;28;20103;-63
2023/09/17 08:35:45;;;;;;;11.57;9.15;;;;;;;;;;5027167;28;20478;-65
2023/09/17 08:38:14;;;;;;;13.07;9.65;;;;;;;;;;5026771;28;20064;-63
2023/09/17 08:40:41;;;;;;;13.10;9.90;;;;;;;;;;5026539;28;20045;-64
2023/09/17 08:43:09;;;;;;;14.55;9.43;;;;;;;;;;5026380;28;20030;-63
2023/09/17 08:45:37;;;;;;;10.90;9.63;;;;;;;;;;5026598;28;20045;-64
2023/09/17 08:48:04;;;;;;;13.77;9.68;;;;;;;;;;5025175;28;20689;-64
2023/09/17 08:50:34;;;;;;;11.68;9.65;;;;;;;;;;5027024;28;20045;-64
2023/09/17 08:53:06;;;;;;;16.20;8.57;;;;;;;;;;5026370;28;20045;-64
2023/09/17 08:55:34;;;;;;;11.18;9.38;;;;;;;;;;5026823;28;20046;-64
2023/09/17 08:58:21;;;;;;;11.50;9.07;;;;;;;;;;5031094;28;20060;-64
2023/09/17 09:00:52;;;;;;;12.63;9.98;;;;;;;;;;5030929;28;20050;-64
2023/09/17 09:03:22;;;;;;;16.48;12.85;;;;;;;;;;5031132;28;20434;-64
2023/09/17 09:05:50;;;;;;;12.40;9.93;;;;;;;;;;5031025;28;20069;-63
2023/09/17 09:08:18;;;;;;;16.52;13.70;;;;;;;;;;5032208;28;20402;-63
2023/09/17 09:10:46;;;;;;;18.83;10.38;;;;;;;;;;5032222;28;20034;-64
2023/09/17 09:13:13;;;;;;;18.52;14.88;;;;;;;;;;5032152;28;20491;-65
2023/09/17 09:15:41;;;;;;;15.57;11.38;;;;;;;;;;5032149;28;20039;-64
2023/09/17 09:18:09;;;;;;;13.98;11.18;;;;;;;;;;5032035;28;20041;-64
2023/09/17 09:20:37;;;;;;;12.43;9.23;;;;;;;;;;5032005;28;20056;-64
2023/09/17 09:23:05;;;;;;;12.43;9.43;;;;;;;;;;5032065;28;20410;-64
2023/09/17 09:25:34;;;;;;;14.13;9.85;;;;;;;;;;5030980;28;20429;-64
2023/09/17 09:28:02;;;;;;;13.50;8.48;;;;;;;;;;5032063;28;20045;-64
2023/09/17 09:30:30;;;;;;;10.90;8.30;;;;;;;;;;5032191;28;20053;-64
2023/09/17 09:32:58;;;;;;;12.60;9.52;;;;;;;;;;5030618;28;20176;-64
2023/09/17 09:35:26;;;;;;;12.65;9.38;;;;;;;;;;5031960;28;20057;-64
2023/09/17 09:37:53;;;;;;;14.38;11.25;;;;;;;;;;5031735;28;20099;-65
2023/09/17 09:40:21;;;;;;;12.15;10.15;;;;;;;;;;5033880;28;20099;-64
2023/09/17 09:42:49;;;;;;;11.25;10.07;;;;;;;;;;5035561;28;20045;-65
2023/09/17 09:45:17;;;;;;;10.45;8.88;;;;;;;;;;5034316;28;20120;-64
2023/09/17 09:47:48;;;;;;;10.27;9.23;;;;;;;;;;5035294;28;20046;-64
2023/09/17 09:50:26;;;;;;;12.55;10.88;;;;;;;;;;5035522;28;20045;-64
2023/09/17 09:52:55;;;;;;;12.30;9.02;;;;;;;;;;5035588;28;20049;-64
2023/09/17 09:55:27;;;;;;;10.30;8.50;;;;;;;;;;5035233;28;20116;-65
2023/09/17 09:57:55;;;;;;;12.13;8.75;;;;;;;;;;5035485;28;20045;-64
2023/09/17 10:00:26;;;;;;;11.68;8.45;;;;;;;;;;5035327;28;20164;-65
2023/09/17 10:02:55;;;;;;;12.30;9.43;;;;;;;;;;5035334;28;20041;-64
2023/09/17 10:05:33;;;;;;;13.30;8.43;;;;;;;;;;5035179;28;20448;-64
2023/09/17 10:08:04;;;;;;;10.73;8.65;;;;;;;;;;5034092;28;20037;-65
2023/09/17 10:10:32;;;;;;;12.13;9.90;;;;;;;;;;5034000;28;20038;-65
2023/09/17 10:13:06;;;;;;;11.95;8.55;;;;;;;;;;5035304;28;20064;-65
2023/09/17 10:15:36;;;;;;;13.05;8.43;;;;;;;;;;5035054;28;20049;-64
2023/09/17 10:18:04;;;;;;;11.00;8.18;;;;;;;;;;5034967;28;20045;-64
2023/09/17 10:20:32;;;;;;;9.65;8.65;;;;;;;;;;5034927;28;20129;-65
2023/09/17 10:23:01;;;;;;;10.27;7.88;;;;;;;;;;5034997;28;20052;-65
2023/09/17 10:25:30;;;;;;;11.30;8.70;;;;;;;;;;5034888;28;20099;-65
2023/09/17 10:27:58;;;;;;;14.23;9.48;;;;;;;;;;5034850;28;20135;-65
2023/09/17 10:30:26;;;;;;;10.05;7.57;;;;;;;;;;5034773;28;20041;-65
2023/09/17 10:32:54;;;;;;;8.45;7.28;;;;;;;;;;5034709;28;20049;-65
2023/09/17 10:35:21;;;;;;;9.95;7.43;;;;;;;;;;5034692;28;20069;-65
2023/09/17 10:37:49;;;;;;;14.55;9.20;;;;;;;;;;5034163;28;20041;-64
2023/09/17 10:40:18;;;;;;;16.10;11.20;;;;;;;;;;5034626;28;20140;-64
2023/09/17 10:42:47;;;;;;;26.33;16.77;;;;;;;;;;5034179;28;20041;-64
2023/09/17 10:45:14;;;;;;;11.60;7.30;;;;;;;;;;5033132;28;20046;-64
2023/09/17 10:47:42;;;;;;;23.15;11.68;;;;;;;;;;5034276;28;20041;-64
2023/09/17 10:50:11;;;;;;;15.30;10.23;;;;;;;;;;5034149;28;20041;-64
2023/09/17 10:52:39;;;;;;;12.02;7.63;;;;;;;;;;5034334;28;20501;-64
2023/09/17 10:55:07;;;;;;;12.95;8.77;;;;;;;;;;5034403;28;20129;-64
2023/09/17 10:57:40;;;;;;;10.93;6.47;;;;;;;;;;5034223;28;20040;-64
2023/09/17 11:00:13;;;;;;;8.63;6.95;;;;;;;;;;5029613;28;20046;-64
2023/09/17 11:02:47;;;;;;;10.68;7.30;;;;;;;;;;5026322;28;20052;-65
2023/09/17 11:05:17;;;;;;;11.35;7.43;;;;;;;;;;5026606;28;20502;-64
2023/09/17 11:07:45;;;;;;;10.23;7.38;;;;;;;;;;5023741;28;20040;-64
2023/09/17 11:10:14;;;;;;;8.63;6.57;;;;;;;;;;5027736;28;20366;-65
2023/09/17 11:12:58;;;;;;;10.18;7.45;;;;;;;;;;5027919;28;20391;-64
2023/09/17 11:15:25;;;;;;;8.80;6.70;;;;;;;;;;5027715;28;20037;-63
2023/09/17 11:17:59;;;;;;;10.23;6.75;;;;;;;;;;5028500;28;20099;-64
2023/09/17 11:20:27;;;;;;;11.40;8.23;;;;;;;;;;5025386;28;20045;-64
2023/09/17 11:22:56;;;;;;;8.35;6.18;;;;;;;;;;5027443;28;20043;-63
2023/09/17 11:25:34;;;;;;;7.53;6.30;;;;;;;;;;5027184;28;20404;-64
2023/09/17 11:28:12;;;;;;;8.07;6.00;;;;;;;;;;5018491;28;20048;-64
2023/09/17 11:30:57;;;;;;;8.43;6.75;;;;;;;;;;5027976;28;20042;-65
2023/09/17 11:33:29;;;;;;;7.30;6.22;;;;;;;;;;5027890;28;20380;-64
2023/09/17 11:35:58;;;;;;;10.27;6.63;;;;;;;;;;5026510;28;20042;-65
2023/09/17 11:38:27;;;;;;;13.15;6.13;;;;;;;;;;5027541;28;20049;-64
2023/09/17 11:41:05;;;;;;;10.85;6.80;;;;;;;;;;5027854;28;20445;-64
2023/09/17 11:43:33;;;;;;;11.55;6.75;;;;;;;;;;5026392;28;20075;-63
2023/09/17 11:46:04;;;;;;;10.45;6.57;;;;;;;;;;5027527;28;20072;-64
2023/09/17 11:48:33;;;;;;;11.40;7.45;;;;;;;;;;5026998;28;20465;-64
2023/09/17 11:51:19;;;;;;;13.27;7.95;;;;;;;;;;5027584;28;20037;-64
2023/09/17 11:53:53;;;;;;;15.23;12.07;;;;;;;;;;5025084;28;20064;-63
2023/09/17 11:56:21;;;;;;;11.18;8.75;;;;;;;;;;5027804;28;20156;-64
2023/09/17 11:58:58;;;;;;;9.80;8.00;;;;;;;;;;5028250;28;20037;-64
2023/09/17 12:01:28;;;;;;;10.45;7.88;;;;;;;;;;5027653;28;20045;-65
2023/09/17 12:03:57;;;;;;;11.13;6.45;;;;;;;;;;5026716;28;20050;-64
2023/09/17 12:06:28;;;;;;;9.63;7.72;;;;;;;;;;5027260;28;20132;-63
2023/09/17 12:12:07;;;;;;;10.77;6.03;;;;;;;;;;5019057;28;20051;-64
2023/09/17 12:14:35;;;;;;;7.50;5.82;;;;;;;;;;5027133;28;20044;-65
2023/09/17 12:17:02;;;;;;;7.22;6.47;;;;;;;;;;5027143;28;20048;-65
2023/09/17 12:19:30;;;;;;;8.27;6.50;;;;;;;;;;5026907;28;20120;-64
2023/09/17 12:21:59;;;;;;;7.70;5.32;;;;;;;;;;5026794;28;20033;-63
2023/09/17 12:24:34;;;;;;;9.52;6.20;;;;;;;;;;5026306;28;20124;-64
2023/09/17 12:27:35;;;;;;;8.70;6.28;;;;;;;;;;5026779;28;20044;-63
2023/09/17 12:30:05;;;;;;;;;;;;;;;;;;5027229;28;20128;-63
2023/09/17 12:32:34;;;;;;;9.15;6.65;;;;;;;;;;5027002;28;19932;-65
2023/09/17 12:35:03;;;;;;;9.90;6.88;;;;;;;;;;5026890;28;20467;-64
2023/09/17 12:37:31;;;;;;;8.88;6.28;;;;;;;;;;5026250;28;20084;-63
2023/09/17 12:39:58;;;;;;;8.82;6.18;;;;;;;;;;5026652;28;20088;-62
2023/09/17 12:42:26;;;;;;;7.50;5.80;;;;;;;;;;5026843;28;20033;-62
2023/09/17 12:44:54;;;;;;;8.52;6.47;;;;;;;;;;5025281;28;20131;-63
2023/09/17 12:47:24;;;;;;;7.50;6.03;;;;;;;;;;5026823;28;20045;-63
2023/09/17 12:49:54;;;;;;;6.63;5.88;;;;;;;;;;5025860;28;20046;-62
2023/09/17 12:52:22;;;;;;;9.48;6.25;;;;;;;;;;5026767;28;20051;-63
2023/09/17 12:54:53;;;;;;;7.82;6.53;;;;;;;;;;5026619;28;20049;-63
2023/09/17 12:57:22;;;;;;;8.05;5.93;;;;;;;;;;5026643;28;20050;-62
2023/09/17 12:59:51;;;;;;;7.50;5.40;;;;;;;;;;5026205;28;20514;-61
2023/09/17 13:02:18;;;;;;;6.93;5.35;;;;;;;;;;5026623;28;20042;-63
2023/09/17 13:04:46;;;;;;;10.25;5.90;;;;;;;;;;5026430;28;20041;-63
2023/09/17 13:07:23;;;;;;;8.50;5.03;;;;;;;;;;5026737;28;20084;-62
2023/09/17 13:09:54;;;;;;;8.70;5.78;;;;;;;;;;5026225;28;20491;-63
2023/09/17 13:12:23;;;;;;;7.78;5.55;;;;;;;;;;5026331;28;20115;-63
2023/09/17 13:14:51;;;;;;;9.23;5.78;;;;;;;;;;5029375;28;20045;-63
2023/09/17 13:17:23;;;;;;;7.25;5.57;;;;;;;;;;5029326;28;20402;-63
2023/09/17 13:19:51;;;;;;;8.75;5.63;;;;;;;;;;5030350;28;20414;-63
2023/09/17 13:22:19;;;;;;;7.03;5.70;;;;;;;;;;5030331;28;20045;-63
2023/09/17 13:24:47;;;;;;;8.85;5.55;;;;;;;;;;5028215;28;20052;-63
2023/09/17 13:27:19;;;;;;;6.18;5.00;;;;;;;;;;5012242;28;20169;-62
2023/09/17 13:29:53;;;;;;;7.95;5.70;;;;;;;;;;5029956;28;20431;-63
2023/09/17 13:32:21;;;;;;;6.15;5.53;;;;;;;;;;5029864;28;20099;-64
2023/09/17 13:34:49;;;;;;;8.88;5.43;;;;;;;;;;5029078;28;20038;-64
2023/09/17 13:37:17;;;;;;;7.72;5.45;;;;;;;;;;5029358;28;20054;-65
2023/09/17 13:39:45;;;;;;;6.78;5.13;;;;;;;;;;5029587;28;20037;-65
2023/09/17 13:42:13;;;;;;;8.90;5.47;;;;;;;;;;5029958;28;20482;-64
2023/09/17 13:44:41;;;;;;;8.07;5.28;;;;;;;;;;5029764;28;20045;-64
2023/09/17 13:47:09;;;;;;;6.40;5.18;;;;;;;;;;5028737;28;20064;-64
2023/09/17 13:49:41;;;;;;;8.60;5.18;;;;;;;;;;5029548;28;20040;-65
2023/09/17 13:52:09;;;;;;;6.63;5.57;;;;;;;;;;5019448;28;20810;-64
2023/09/17 13:54:38;;;;;;;5.82;5.07;;;;;;;;;;5029371;28;20049;-64
2023/09/17 13:57:06;;;;;;;8.68;5.72;;;;;;;;;;5029968;28;20597;-63
2023/09/17 13:59:34;;;;;;;9.50;5.18;;;;;;;;;;5029448;28;20053;-66
2023/09/17 14:02:04;;;;;;;9.63;4.97;;;;;;;;;;5029324;28;20045;-64
2023/09/17 14:04:35;;;;;;;8.35;5.40;;;;;;;;;;5029395;28;20134;-63
2023/09/17 14:07:03;;;;;;;5.85;5.25;;;;;;;;;;5029672;28;20052;-64
2023/09/17 14:09:30;;;;;;;6.45;5.13;;;;;;;;;;5029628;28;20643;-63
2023/09/17 14:11:58;;;;;;;7.20;5.20;;;;;;;;;;5029501;28;20589;-64
2023/09/17 14:14:25;;;;;;;8.70;5.78;;;;;;;;;;5028891;28;20107;-63
2023/09/17 14:16:53;;;;;;;8.05;5.68;;;;;;;;;;5027957;28;20056;-62
2023/09/17 14:19:20;;;;;;;7.22;5.25;;;;;;;;;;5029130;28;20052;-63
2023/09/17 14:21:48;;;;;;;6.50;5.10;;;;;;;;;;5029074;28;20087;-62
2023/09/17 14:24:15;;;;;;;7.72;5.30;;;;;;;;;;5028864;28;20048;-63
2023/09/17 14:26:43;;;;;;;6.82;4.63;;;;;;;;;;5028429;28;20081;-63
2023/09/17 14:29:11;;;;;;;5.90;4.68;;;;;;;;;;5028890;28;20075;-62
2023/09/17 14:31:39;;;;;;;8.10;5.20;;;;;;;;;;5029018;28;20053;-62
2023/09/17 14:34:10;;;;;;;8.85;5.57;;;;;;;;;;5029135;28;20060;-62
2023/09/17 14:36:38;;;;;;;9.23;5.97;;;;;;;;;;5022279;28;20073;-62
2023/09/17 14:39:06;;;;;;;7.57;4.82;;;;;;;;;;5028905;28;20045;-63